createdAt,value
2018-11-07T00:01:58.991Z,90.91
2018-11-07T00:04:27.424Z,91.04
2018-11-07T00:06:55.866Z,90.96
2018-11-07T00:09:24.276Z,91.22
2018-11-07T00:11:52.836Z,91.53
2018-11-07T00:14:21.289Z,90.53
2018-11-07T00:16:49.717Z,90.67
2018-11-07T00:19:18.192Z,90.83
2018-11-07T00:21:46.666Z,90.84
2018-11-07T00:24:15.144Z,89.85
2018-11-07T00:26:43.567Z,89.03
2018-11-07T00:29:12.447Z,88.56
2018-11-07T00:31:41.038Z,88.08
2018-11-07T00:34:09.421Z,88.32
2018-11-07T00:36:37.836Z,87.83
2018-11-07T00:39:07.886Z,87.79
2018-11-07T00:41:36.389Z,87.85
2018-11-07T00:44:04.974Z,87.97
2018-11-07T00:46:33.595Z,87.93
2018-11-07T00:49:02.187Z,87.42
2018-11-07T00:51:30.920Z,87.63
2018-11-07T00:53:59.378Z,86.64
2018-11-07T00:56:27.796Z,86.50
2018-11-07T00:58:56.288Z,86.09
2018-11-07T01:01:24.714Z,86.81
2018-11-07T01:03:53.161Z,85.98
2018-11-07T01:06:21.565Z,85.66
2018-11-07T01:08:50.586Z,86.23
2018-11-07T01:11:19.008Z,85.96
2018-11-07T01:13:47.441Z,85.96
2018-11-07T01:16:15.964Z,86.20
2018-11-07T01:18:44.395Z,86.17
2018-11-07T01:21:12.856Z,85.39
2018-11-07T01:23:41.261Z,85.46
2018-11-07T01:26:09.646Z,85.75
2018-11-07T01:28:38.086Z,84.98
2018-11-07T01:31:06.660Z,85.57
2018-11-07T01:33:35.156Z,85.43
2018-11-07T01:36:03.555Z,84.93
2018-11-07T01:38:31.996Z,84.93
2018-11-07T01:41:00.441Z,85.35
2018-11-07T01:43:28.908Z,84.70
2018-11-07T01:45:57.376Z,84.76
2018-11-07T01:48:25.792Z,85.74
2018-11-07T01:50:54.245Z,85.16
2018-11-07T01:53:22.710Z,85.92
2018-11-07T01:55:51.103Z,85.86
2018-11-07T01:58:19.554Z,86.04
2018-11-07T02:00:48.037Z,86.13
2018-11-07T02:03:16.496Z,86.82
2018-11-07T02:05:44.892Z,86.36
2018-11-07T02:08:13.308Z,86.04
2018-11-07T02:10:41.769Z,86.52
2018-11-07T02:13:10.239Z,86.39
2018-11-07T02:15:38.642Z,86.31
2018-11-07T02:18:07.279Z,86.37
2018-11-07T02:20:35.728Z,86.13
2018-11-07T02:23:04.173Z,86.47
2018-11-07T02:25:32.562Z,85.93
2018-11-07T02:28:01.001Z,85.70
2018-11-07T02:30:29.442Z,86.38
2018-11-07T02:32:57.832Z,86.26
2018-11-07T02:35:26.254Z,86.30
2018-11-07T02:37:54.659Z,86.31
2018-11-07T02:40:23.049Z,86.92
2018-11-07T02:42:51.460Z,86.62
2018-11-07T02:45:19.937Z,87.27
2018-11-07T02:47:48.352Z,87.00
2018-11-07T02:50:16.782Z,86.77
2018-11-07T02:52:45.180Z,86.85
2018-11-07T02:55:13.604Z,87.23
2018-11-07T02:57:41.996Z,87.42
2018-11-07T03:00:12.419Z,87.61
2018-11-07T03:02:40.919Z,87.14
2018-11-07T03:05:09.879Z,87.24
2018-11-07T03:07:39.488Z,87.93
2018-11-07T03:10:10.376Z,87.23
2018-11-07T03:12:38.929Z,87.08
2018-11-07T03:15:07.661Z,87.30
2018-11-07T03:17:36.154Z,87.70
2018-11-07T03:20:04.754Z,87.23
2018-11-07T03:22:33.175Z,87.36
2018-11-07T03:25:01.562Z,87.21
2018-11-07T03:27:29.988Z,87.18
2018-11-07T03:29:58.415Z,87.37
2018-11-07T03:32:26.822Z,87.23
2018-11-07T03:34:55.245Z,87.83
2018-11-07T03:37:23.652Z,87.12
2018-11-07T03:39:52.169Z,86.99
2018-11-07T03:42:20.456Z,87.53
2018-11-07T03:44:48.861Z,86.91
2018-11-07T03:47:17.257Z,87.68
2018-11-07T03:49:45.660Z,87.08
2018-11-07T03:52:14.085Z,87.63
2018-11-07T03:54:42.527Z,87.48
2018-11-07T03:57:12.093Z,87.60
2018-11-07T03:59:40.552Z,87.02
2018-11-07T04:02:08.951Z,87.37
2018-11-07T04:04:37.361Z,87.55
2018-11-07T04:07:06.193Z,86.68
2018-11-07T04:09:34.650Z,87.13
2018-11-07T04:12:03.082Z,86.84
2018-11-07T04:14:31.507Z,86.50
2018-11-07T04:16:59.917Z,87.22
2018-11-07T04:19:28.968Z,86.56
2018-11-07T04:21:57.467Z,86.46
2018-11-07T04:24:25.863Z,86.69
2018-11-07T04:26:54.252Z,86.43
2018-11-07T04:29:22.656Z,86.49
2018-11-07T04:31:51.064Z,86.89
2018-11-07T04:34:19.473Z,87.24
2018-11-07T04:36:47.906Z,86.81
2018-11-07T04:39:16.360Z,86.75
2018-11-07T04:41:44.725Z,86.70
2018-11-07T04:44:13.130Z,85.97
2018-11-07T04:46:41.511Z,86.16
2018-11-07T04:49:09.982Z,86.15
2018-11-07T04:51:38.436Z,86.68
2018-11-07T04:54:06.872Z,86.70
2018-11-07T04:56:35.256Z,86.57
2018-11-07T05:01:31.076Z,85.86
2018-11-07T05:03:59.490Z,86.26
2018-11-07T05:06:27.873Z,85.92
2018-11-07T05:08:56.274Z,86.25
2018-11-07T05:11:24.739Z,85.64
2018-11-07T05:13:53.129Z,86.09
2018-11-07T05:16:21.557Z,85.84
2018-11-07T05:18:50.044Z,85.96
2018-11-07T05:21:18.436Z,86.03
2018-11-07T05:23:46.848Z,86.41
2018-11-07T05:26:15.278Z,85.82
2018-11-07T05:28:43.672Z,86.31
2018-11-07T05:31:12.068Z,86.51
2018-11-07T05:33:40.526Z,86.05
2018-11-07T05:36:08.981Z,86.57
2018-11-07T05:38:37.398Z,85.90
2018-11-07T05:41:06.020Z,86.71
2018-11-07T05:43:34.423Z,86.11
2018-11-07T05:46:02.842Z,86.75
2018-11-07T05:48:31.264Z,86.38
2018-11-07T05:50:59.651Z,86.06
2018-11-07T05:53:28.092Z,85.77
2018-11-07T05:55:56.534Z,85.90
2018-11-07T05:58:24.955Z,86.32
2018-11-07T06:00:53.430Z,85.88
2018-11-07T06:03:21.859Z,86.17
2018-11-07T06:05:50.274Z,86.30
2018-11-07T06:08:18.677Z,85.98
2018-11-07T06:10:47.134Z,85.72
2018-11-07T06:13:15.567Z,85.85
2018-11-07T06:15:44.084Z,85.86
2018-11-07T06:18:12.496Z,86.19
2018-11-07T06:20:41.049Z,86.38
2018-11-07T06:23:09.513Z,86.31
2018-11-07T06:25:37.993Z,86.25
2018-11-07T06:28:06.403Z,86.10
2018-11-07T06:30:34.838Z,85.86
2018-11-07T06:33:03.261Z,85.95
2018-11-07T06:35:31.642Z,85.88
2018-11-07T06:38:00.089Z,86.64
2018-11-07T06:40:29.230Z,86.66
2018-11-07T06:42:57.679Z,86.84
2018-11-07T06:45:26.187Z,87.06
2018-11-07T06:47:55.496Z,87.13
2018-11-07T06:50:23.947Z,86.79
2018-11-07T06:52:52.390Z,86.99
2018-11-07T06:55:20.842Z,87.23
2018-11-07T06:57:49.251Z,86.74
2018-11-07T07:00:18.208Z,86.64
2018-11-07T07:02:47.743Z,86.46
2018-11-07T07:05:16.478Z,86.91
2018-11-07T07:07:44.906Z,86.72
2018-11-07T07:10:15.692Z,86.79
2018-11-07T07:12:44.110Z,86.36
2018-11-07T07:15:14.163Z,86.23
2018-11-07T07:17:42.791Z,86.20
2018-11-07T07:20:13.855Z,84.92
2018-11-07T07:22:42.984Z,84.55
2018-11-07T07:25:12.514Z,85.03
2018-11-07T07:27:41.566Z,85.47
2018-11-07T07:30:12.850Z,85.64
2018-11-07T07:32:43.480Z,85.44
2018-11-07T07:35:12.454Z,84.39
2018-11-07T07:37:40.905Z,85.06
2018-11-07T07:40:10.955Z,84.52
2018-11-07T07:42:40.392Z,84.47
2018-11-07T07:45:11.151Z,84.62
2018-11-07T07:47:40.114Z,83.93
2018-11-07T07:50:10.381Z,83.91
2018-11-07T07:52:38.955Z,83.91
2018-11-07T07:55:07.984Z,83.62
2018-11-07T07:57:36.847Z,84.31
2018-11-07T08:00:10.258Z,83.85
2018-11-07T08:02:39.031Z,83.81
2018-11-07T08:05:07.529Z,83.86
2018-11-07T08:07:35.953Z,83.89
2018-11-07T08:10:05.992Z,83.18
2018-11-07T08:12:34.417Z,83.26
2018-11-07T08:15:02.870Z,83.06
2018-11-07T08:17:31.306Z,83.19
2018-11-07T08:19:59.701Z,83.17
2018-11-07T08:22:28.189Z,83.63
2018-11-07T08:24:56.621Z,82.68
2018-11-07T08:27:25.141Z,81.99
2018-11-07T08:29:53.618Z,82.13
2018-11-07T08:32:22.203Z,82.04
2018-11-07T08:34:50.692Z,82.60
2018-11-07T08:37:19.268Z,81.75
2018-11-07T08:39:47.652Z,81.51
2018-11-07T08:42:16.193Z,80.07
2018-11-07T08:44:44.602Z,80.64
2018-11-07T08:47:13.040Z,80.44
2018-11-07T08:49:41.518Z,80.35
2018-11-07T08:52:10.047Z,78.74
2018-11-07T08:54:38.468Z,79.40
2018-11-07T08:57:07.047Z,79.72
2018-11-07T08:59:35.538Z,80.15
2018-11-07T09:02:04.010Z,79.03
2018-11-07T09:04:32.421Z,78.68
2018-11-07T09:07:00.829Z,78.34
2018-11-07T09:09:29.252Z,78.80
2018-11-07T09:11:57.697Z,78.76
2018-11-07T09:14:26.121Z,78.38
2018-11-07T09:16:54.553Z,78.27
2018-11-07T09:19:22.976Z,78.08
2018-11-07T09:21:51.645Z,78.08
2018-11-07T09:24:20.121Z,78.68
2018-11-07T09:26:48.554Z,78.67
2018-11-07T09:29:17.052Z,76.83
2018-11-07T09:31:45.401Z,77.33
2018-11-07T09:34:13.889Z,77.33
2018-11-07T09:36:42.383Z,77.36
2018-11-07T09:39:11.502Z,76.80
2018-11-07T09:41:39.982Z,76.56
2018-11-07T09:44:08.410Z,77.22
2018-11-07T09:46:36.917Z,76.79
2018-11-07T09:49:05.390Z,76.46
2018-11-07T09:51:33.849Z,76.46
2018-11-07T09:54:02.973Z,74.89
2018-11-07T09:56:31.360Z,75.70
2018-11-07T09:59:00.230Z,75.60
2018-11-07T10:01:28.646Z,75.32
2018-11-07T10:03:57.140Z,73.91
2018-11-07T10:06:25.611Z,73.67
2018-11-07T10:08:54.098Z,73.64
2018-11-07T10:11:22.557Z,73.51
2018-11-07T10:13:50.997Z,73.07
2018-11-07T10:16:19.494Z,74.08
2018-11-07T10:18:47.934Z,73.28
2018-11-07T10:21:16.353Z,74.05
2018-11-07T10:23:44.781Z,73.87
2018-11-07T10:26:13.258Z,74.05
2018-11-07T10:28:41.997Z,72.81
2018-11-07T10:31:10.134Z,71.75
2018-11-07T10:33:38.586Z,72.35
2018-11-07T10:36:07.038Z,70.90
2018-11-07T10:38:35.603Z,70.96
2018-11-07T10:41:04.028Z,69.89
2018-11-07T10:43:32.453Z,70.63
2018-11-07T10:46:00.913Z,69.87
2018-11-07T10:48:29.341Z,69.93
2018-11-07T10:50:57.789Z,70.08
2018-11-07T10:53:26.276Z,69.81
2018-11-07T10:55:54.706Z,70.04
2018-11-07T10:58:23.090Z,71.00
2018-11-07T11:00:56.918Z,71.80
2018-11-07T11:03:30.608Z,71.87
2018-11-07T11:05:59.222Z,71.88
2018-11-07T11:08:27.706Z,71.08
2018-11-07T11:10:56.146Z,71.53
2018-11-07T11:13:25.928Z,70.52
2018-11-07T11:15:54.355Z,69.67
2018-11-07T11:18:22.809Z,69.80
2018-11-07T11:20:51.281Z,70.24
2018-11-07T11:23:19.798Z,69.32
2018-11-07T11:25:49.365Z,67.83
2018-11-07T11:28:17.755Z,68.29
2018-11-07T11:30:46.382Z,68.03
2018-11-07T11:33:14.816Z,67.84
2018-11-07T11:35:43.242Z,68.59
2018-11-07T11:38:11.705Z,67.24
2018-11-07T11:40:40.163Z,66.87
2018-11-07T11:43:08.844Z,68.30
2018-11-07T11:45:37.324Z,66.59
2018-11-07T11:48:05.817Z,67.43
2018-11-07T11:50:34.247Z,68.09
2018-11-07T11:53:02.712Z,67.52
2018-11-07T11:55:31.144Z,66.70
2018-11-07T11:57:59.587Z,66.28
2018-11-07T12:00:28.067Z,65.85
2018-11-07T12:02:56.563Z,66.39
2018-11-07T12:05:25.017Z,66.95
2018-11-07T12:07:53.453Z,67.16
2018-11-07T12:10:23.203Z,65.79
2018-11-07T12:12:52.854Z,65.64
2018-11-07T12:15:22.620Z,65.16
2018-11-07T12:17:51.112Z,64.96
2018-11-07T12:20:19.645Z,65.25
2018-11-07T12:22:48.142Z,64.67
2018-11-07T12:25:17.298Z,65.65
2018-11-07T12:27:45.893Z,65.16
2018-11-07T12:30:17.418Z,64.69
2018-11-07T12:32:46.928Z,65.47
2018-11-07T12:35:16.153Z,65.29
2018-11-07T12:37:44.567Z,64.17
2018-11-07T12:40:13.493Z,64.59
2018-11-07T12:42:42.009Z,65.87
2018-11-07T12:45:12.058Z,64.55
2018-11-07T12:47:40.784Z,64.34
2018-11-07T12:50:12.991Z,65.88
2018-11-07T12:52:41.423Z,64.56
2018-11-07T12:55:11.231Z,64.50
2018-11-07T12:57:39.838Z,64.01
2018-11-07T13:00:17.381Z,63.60
2018-11-07T13:02:46.482Z,62.55
2018-11-07T13:05:16.197Z,62.62
2018-11-07T13:07:45.635Z,60.76
2018-11-07T13:10:16.127Z,62.33
2018-11-07T13:12:45.401Z,62.27
2018-11-07T13:15:14.432Z,62.00
2018-11-07T13:17:42.938Z,61.47
2018-11-07T13:20:13.762Z,62.01
2018-11-07T13:22:42.946Z,61.01
2018-11-07T13:25:12.288Z,61.68
2018-11-07T13:27:40.661Z,61.52
2018-11-07T13:30:11.478Z,61.70
2018-11-07T13:32:40.075Z,60.70
2018-11-07T13:35:09.448Z,63.31
2018-11-07T13:37:38.823Z,63.40
2018-11-07T13:40:12.810Z,63.80
2018-11-07T13:42:41.306Z,62.17
2018-11-07T13:45:11.723Z,62.75
2018-11-07T13:47:41.054Z,63.29
2018-11-07T13:50:10.154Z,64.29
2018-11-07T13:52:38.592Z,64.78
2018-11-07T13:55:08.283Z,64.15
2018-11-07T13:57:36.727Z,65.42
2018-11-07T14:00:07.589Z,64.46
2018-11-07T14:02:36.245Z,65.15
2018-11-07T14:05:05.078Z,66.00
2018-11-07T14:07:33.540Z,65.56
2018-11-07T14:10:02.093Z,65.68
2018-11-07T14:12:30.586Z,66.51
2018-11-07T14:14:59.032Z,66.66
2018-11-07T14:17:27.512Z,65.81
2018-11-07T14:19:56.008Z,66.37
2018-11-07T14:22:24.458Z,65.81
2018-11-07T14:24:52.881Z,65.49
2018-11-07T14:27:21.443Z,65.42
2018-11-07T14:29:49.866Z,67.17
2018-11-07T14:32:18.564Z,66.54
2018-11-07T14:34:47.175Z,67.14
2018-11-07T14:37:15.570Z,67.21
2018-11-07T14:39:45.047Z,67.75
2018-11-07T14:42:13.476Z,67.03
2018-11-07T14:44:41.952Z,68.14
2018-11-07T14:47:10.437Z,68.67
2018-11-07T14:49:38.836Z,68.81
2018-11-07T14:52:07.317Z,69.06
2018-11-07T14:54:35.755Z,67.37
2018-11-07T14:57:04.620Z,68.14
2018-11-07T14:59:33.061Z,68.50
2018-11-07T15:02:01.483Z,68.22
2018-11-07T15:04:29.910Z,68.07
2018-11-07T15:06:58.324Z,68.00
2018-11-07T15:09:26.774Z,68.31
2018-11-07T15:11:55.260Z,69.31
2018-11-07T15:14:23.666Z,69.30
2018-11-07T15:16:52.219Z,69.48
2018-11-07T15:19:20.623Z,69.24
2018-11-07T15:21:49.065Z,69.42
2018-11-07T15:24:17.504Z,69.55
2018-11-07T15:26:45.901Z,69.80
2018-11-07T15:29:14.345Z,71.06
2018-11-07T15:31:42.790Z,71.39
2018-11-07T15:34:12.308Z,74.00
2018-11-07T15:36:40.765Z,75.33
2018-11-07T15:39:10.592Z,77.78
2018-11-07T15:41:39.060Z,80.00
2018-11-07T15:44:07.481Z,82.24
2018-11-07T15:46:35.902Z,81.16
2018-11-07T15:49:04.450Z,81.85
2018-11-07T15:51:38.009Z,83.02
2018-11-07T15:54:07.151Z,84.18
2018-11-07T15:56:35.959Z,84.33
2018-11-07T15:59:04.549Z,84.54
2018-11-07T16:01:32.998Z,85.17
2018-11-07T16:04:02.356Z,85.88
2018-11-07T16:06:30.810Z,85.71
2018-11-07T16:09:00.235Z,86.51
2018-11-07T16:11:29.703Z,87.11
2018-11-07T16:13:58.109Z,88.03
2018-11-07T16:16:27.484Z,87.58
2018-11-07T16:18:55.979Z,89.30
2018-11-07T16:21:24.430Z,88.95
2018-11-07T16:23:53.037Z,89.37
2018-11-07T16:26:21.616Z,88.82
2018-11-07T16:28:50.114Z,90.11
2018-11-07T16:31:19.497Z,90.33
2018-11-07T16:33:47.950Z,90.37
2018-11-07T16:36:16.433Z,90.39
2018-11-07T16:38:44.937Z,90.83
2018-11-07T16:41:13.410Z,90.73
2018-11-07T16:43:41.885Z,90.84
2018-11-07T16:46:10.391Z,90.02
2018-11-07T16:48:38.873Z,90.90
2018-11-07T16:51:07.281Z,90.63
2018-11-07T16:53:35.701Z,90.21
2018-11-07T16:56:04.211Z,90.59
2018-11-07T16:58:32.771Z,90.25
2018-11-07T17:01:01.285Z,90.04
2018-11-07T17:03:29.702Z,90.30
2018-11-07T17:05:58.189Z,91.07
2018-11-07T17:08:26.666Z,90.23
2018-11-07T17:10:55.235Z,90.14
2018-11-07T17:13:23.677Z,90.79
2018-11-07T17:15:52.212Z,90.99
2018-11-07T17:18:20.577Z,90.98
2018-11-07T17:20:49.001Z,90.52
2018-11-07T17:23:18.524Z,90.33
2018-11-07T17:25:45.904Z,90.02
2018-11-07T17:28:14.325Z,89.89
2018-11-07T17:30:42.794Z,90.66
2018-11-07T17:33:11.218Z,90.50
2018-11-07T17:35:39.662Z,90.07
2018-11-07T17:38:08.142Z,90.30
2018-11-07T17:40:36.584Z,90.44
2018-11-07T17:43:05.237Z,90.13
2018-11-07T17:45:33.677Z,90.14
2018-11-07T17:48:02.224Z,90.74
2018-11-07T17:50:30.622Z,90.97
2018-11-07T17:52:59.099Z,90.33
2018-11-07T17:55:27.583Z,89.44
2018-11-07T17:57:56.134Z,88.85
2018-11-07T18:00:29.988Z,88.50
2018-11-07T18:02:58.397Z,87.86
2018-11-07T18:05:26.861Z,86.00
2018-11-07T18:07:55.302Z,85.65
2018-11-07T18:10:23.825Z,86.23
2018-11-07T18:12:52.262Z,85.69
2018-11-07T18:15:20.829Z,85.49
2018-11-07T18:17:49.290Z,85.19
2018-11-07T18:20:18.373Z,84.76
2018-11-07T18:22:46.836Z,84.17
2018-11-07T18:25:16.948Z,85.31
2018-11-07T18:27:45.417Z,84.25
2018-11-07T18:30:15.128Z,84.38
2018-11-07T18:32:44.254Z,83.86
2018-11-07T18:35:14.278Z,83.90
2018-11-07T18:37:42.838Z,85.32
2018-11-07T18:40:12.713Z,84.38
2018-11-07T18:42:41.549Z,84.56
2018-11-07T18:45:11.014Z,84.46
2018-11-07T18:47:40.702Z,84.58
2018-11-07T18:50:10.889Z,85.10
2018-11-07T18:52:39.242Z,85.01
2018-11-07T18:55:09.786Z,84.72
2018-11-07T18:57:38.229Z,84.54
2018-11-07T19:00:09.901Z,84.92
2018-11-07T19:02:38.464Z,85.13
2018-11-07T19:05:07.541Z,84.27
2018-11-07T19:07:36.377Z,83.55
2018-11-07T19:10:09.750Z,83.81
2018-11-07T19:12:38.367Z,84.85
2018-11-07T19:15:10.614Z,83.70
2018-11-07T19:17:39.384Z,83.79
2018-11-07T19:20:08.725Z,84.47
2018-11-07T19:22:37.202Z,83.73
2018-11-07T19:25:07.119Z,84.21
2018-11-07T19:27:35.934Z,84.08
2018-11-07T19:30:04.752Z,84.25
2018-11-07T19:32:33.250Z,83.97
2018-11-07T19:35:01.698Z,84.43
2018-11-07T19:37:30.136Z,84.19
2018-11-07T19:39:58.617Z,84.03
2018-11-07T19:42:27.084Z,84.54
2018-11-07T19:44:55.539Z,85.29
2018-11-07T19:47:24.013Z,85.32
2018-11-07T19:49:52.515Z,84.91
2018-11-07T19:52:20.934Z,84.93
2018-11-07T19:54:49.398Z,84.80
2018-11-07T19:57:17.867Z,85.11
2018-11-07T19:59:46.539Z,85.73
2018-11-07T20:02:14.968Z,85.27
2018-11-07T20:04:43.416Z,85.19
2018-11-07T20:07:11.842Z,85.01
2018-11-07T20:09:40.424Z,85.16
2018-11-07T20:12:08.906Z,84.93
2018-11-07T20:14:37.371Z,84.76
2018-11-07T20:17:06.316Z,84.11
2018-11-07T20:19:34.646Z,85.37
2018-11-07T20:22:03.693Z,85.07
2018-11-07T20:24:32.170Z,83.74
2018-11-07T20:27:00.642Z,83.93
2018-11-07T20:29:29.120Z,84.09
2018-11-07T20:31:57.641Z,83.68
2018-11-07T20:34:26.181Z,84.46
2018-11-07T20:36:54.650Z,83.72
2018-11-07T20:39:23.089Z,83.57
2018-11-07T20:41:51.587Z,83.60
2018-11-07T20:44:20.054Z,84.21
2018-11-07T20:46:48.501Z,83.65
2018-11-07T20:49:16.983Z,84.02
2018-11-07T20:51:45.828Z,84.44
2018-11-07T20:54:14.329Z,83.54
2018-11-07T20:56:43.037Z,84.21
2018-11-07T20:59:11.468Z,83.78
2018-11-07T21:01:39.963Z,83.85
2018-11-07T21:04:08.380Z,83.50
2018-11-07T21:06:36.858Z,83.49
2018-11-07T21:09:08.293Z,83.28
2018-11-07T21:11:36.795Z,83.99
2018-11-07T21:14:05.903Z,83.83
2018-11-07T21:16:34.361Z,84.37
2018-11-07T21:19:02.895Z,83.98
2018-11-07T21:21:32.103Z,84.14
2018-11-07T21:24:00.699Z,84.49
2018-11-07T21:26:29.217Z,84.71
2018-11-07T21:28:57.709Z,84.62
2018-11-07T21:31:26.184Z,84.64
2018-11-07T21:33:54.757Z,84.48
2018-11-07T21:36:23.242Z,83.84
2018-11-07T21:38:51.817Z,84.23
2018-11-07T21:41:20.312Z,83.84
2018-11-07T21:43:48.826Z,84.67
2018-11-07T21:46:17.342Z,84.79
2018-11-07T21:48:45.734Z,83.95
2018-11-07T21:51:14.200Z,84.30
2018-11-07T21:53:42.691Z,84.12
2018-11-07T21:56:11.163Z,84.56
2018-11-07T21:58:39.594Z,85.27
2018-11-07T22:01:08.015Z,85.14
2018-11-07T22:03:36.497Z,84.78
2018-11-07T22:06:05.127Z,85.62
2018-11-07T22:08:33.591Z,84.58
2018-11-07T22:11:02.068Z,85.00
2018-11-07T22:13:30.450Z,84.65
2018-11-07T22:15:58.934Z,85.07
2018-11-07T22:18:27.376Z,84.54
2018-11-07T22:20:55.796Z,84.88
2018-11-07T22:23:24.237Z,83.81
2018-11-07T22:25:52.696Z,83.91
2018-11-07T22:28:21.137Z,83.92
2018-11-07T22:30:49.654Z,84.02
2018-11-07T22:33:18.135Z,84.30
2018-11-07T22:35:46.537Z,84.59
2018-11-07T22:38:14.960Z,84.77
2018-11-07T22:40:43.394Z,84.56
2018-11-07T22:43:11.849Z,84.75
2018-11-07T22:45:40.261Z,85.19
2018-11-07T22:48:08.701Z,84.78
2018-11-07T22:50:37.153Z,85.15
2018-11-07T22:53:05.667Z,84.53
2018-11-07T22:55:34.190Z,84.76
2018-11-07T22:58:02.625Z,85.33
2018-11-07T23:00:36.346Z,84.48
2018-11-07T23:03:05.137Z,84.96
2018-11-07T23:05:33.595Z,84.11
2018-11-07T23:08:02.055Z,84.74
2018-11-07T23:10:30.556Z,84.14
2018-11-07T23:12:59.015Z,84.18
2018-11-07T23:15:32.618Z,84.01
2018-11-07T23:18:01.021Z,83.87
2018-11-07T23:20:29.421Z,84.33
2018-11-07T23:22:57.826Z,84.34
2018-11-07T23:25:26.272Z,84.47
2018-11-07T23:27:54.733Z,83.65
2018-11-07T23:30:23.165Z,84.21
2018-11-07T23:32:51.609Z,84.58
2018-11-07T23:35:20.013Z,83.80
2018-11-07T23:37:48.469Z,84.53
2018-11-07T23:40:16.837Z,84.57
2018-11-07T23:42:45.233Z,84.37
2018-11-07T23:45:13.636Z,84.16
2018-11-07T23:47:42.053Z,84.83
2018-11-07T23:50:10.528Z,84.89
2018-11-07T23:52:44.413Z,84.55
2018-11-07T23:55:12.864Z,84.48
2018-11-07T23:57:41.285Z,84.71
